Brigantine City, New Jersey
Current Conditions -  °F | °C
As of 8:54 PM on Thursday 20 Nov 2014 (Local Time) from KACY Reporting Station
Broken Clouds Broken Clouds  
Wind Chill: 29°   Ceiling: 7000
Heat Index: 36°   Visibility: 10mi
Dew Point: 22°   Wind: 9mph
Humidity: 57%   Direction: 310°NW
Pressure: 29.99"   Gusts: NA
Location:  39.4065°N, 74.3772°W
Report Text: KACY 210154Z 31008KT 10SM BKN070 02/M06 A2999 RMK AO2 SLP157 T00221056
Loading
Personal Weather Stations






























Interactive Weather Map New forecast layout! Learn more

10-Day Weather Forecast

Advertisements
Track Severe Weather on mobile